Time;durP1;ratioP1;P1;durP2;ratioP2;P2;SDS_P1;SDS_P2;PMS_P1;PMS_P2;Temp;Humidity;BMP_temperature;BMP_pressure;BME280_temperature;BME280_humidity;BME280_pressure;Samples;Min_cycle;Max_cycle;Signal;HPM_P1;HPM_P2
2023/08/25 00:00:43;;;;;;;45.27;43.67;;;22.00;99.90;;;;;;5017836;28;20205;-66
2023/08/25 00:03:10;;;;;;;69.13;65.78;;;22.00;99.90;;;;;;5011341;28;20231;-67
2023/08/25 00:05:37;;;;;;;56.50;53.95;;;22.00;99.90;;;;;;5009638;28;20221;-66
2023/08/25 00:08:05;;;;;;;77.72;74.82;;;21.90;99.90;;;;;;5009614;28;20206;-68
2023/08/25 00:10:32;;;;;;;95.70;91.00;;;21.80;99.90;;;;;;5008946;28;20570;-67
2023/08/25 00:12:59;;;;;;;61.92;59.70;;;21.80;99.90;;;;;;5009523;28;20229;-67
2023/08/25 00:15:27;;;;;;;73.75;70.90;;;21.80;99.90;;;;;;5010473;28;20562;-67
2023/08/25 00:17:54;;;;;;;64.40;61.72;;;21.80;99.90;;;;;;5009105;28;20299;-66
2023/08/25 00:20:21;;;;;;;62.28;59.95;;;21.80;99.90;;;;;;5009673;28;20694;-68
2023/08/25 00:22:48;;;;;;;75.43;72.25;;;21.70;99.90;;;;;;5010165;28;20236;-66
2023/08/25 00:25:15;;;;;;;96.55;91.70;;;21.70;99.90;;;;;;5010033;28;20201;-67
2023/08/25 00:27:41;;;;;;;70.55;67.95;;;21.70;99.90;;;;;;5009387;28;20229;-66
2023/08/25 00:30:10;;;;;;;64.82;62.08;;;21.70;99.90;;;;;;5008640;28;20206;-68
2023/08/25 00:32:38;;;;;;;77.70;74.47;;;21.70;99.90;;;;;;5009500;28;20256;-67
2023/08/25 00:35:06;;;;;;;91.43;85.65;;;21.60;99.90;;;;;;5009193;28;20201;-69
2023/08/25 00:37:33;;;;;;;66.70;63.92;;;21.60;99.90;;;;;;5011243;28;20209;-68
2023/08/25 00:40:00;;;;;;;53.97;51.95;;;21.60;99.90;;;;;;5012038;28;20209;-66
2023/08/25 00:42:27;;;;;;;93.32;88.00;;;21.50;99.90;;;;;;5012911;28;20255;-65
2023/08/25 00:44:53;;;;;;;44.50;42.90;;;21.40;99.90;;;;;;5013578;28;20472;-66
2023/08/25 00:47:21;;;;;;;48.10;46.33;;;21.40;99.90;;;;;;5014261;28;20711;-66
2023/08/25 00:49:49;;;;;;;45.00;43.35;;;21.40;99.90;;;;;;5015648;28;20213;-67
2023/08/25 00:52:19;;;;;;;57.33;55.10;;;21.40;99.90;;;;;;5014228;28;20232;-68
2023/08/25 00:54:47;;;;;;;51.05;49.25;;;21.40;99.90;;;;;;5013905;28;20210;-66
2023/08/25 00:57:14;;;;;;;69.50;66.80;;;21.40;99.90;;;;;;5013289;28;20205;-67
2023/08/25 00:59:41;;;;;;;40.20;38.80;;;21.40;99.90;;;;;;5013261;28;20575;-66
2023/08/25 01:02:09;;;;;;;62.90;60.35;;;21.40;99.90;;;;;;5019147;28;20232;-67
2023/08/25 01:04:37;;;;;;;77.30;74.20;;;21.40;99.90;;;;;;5018700;28;20625;-68
2023/08/25 01:07:05;;;;;;;67.18;64.55;;;21.30;99.90;;;;;;5013096;28;20268;-66
2023/08/25 01:09:33;;;;;;;45.73;44.13;;;21.30;99.90;;;;;;5012935;28;20205;-66
2023/08/25 01:12:04;;;;;;;62.35;60.05;;;21.30;99.90;;;;;;5013684;28;20239;-67
2023/08/25 01:14:40;;;;;;;85.57;81.05;;;21.30;99.90;;;;;;5013786;28;20212;-66
2023/08/25 01:17:15;;;;;;;60.30;57.93;;;21.20;99.90;;;;;;5013233;28;20200;-66
2023/08/25 01:19:52;;;;;;;53.92;51.92;;;21.20;99.90;;;;;;5012688;28;20185;-68
2023/08/25 01:22:33;;;;;;;59.95;57.38;;;21.20;99.90;;;;;;5013293;28;20322;-67
2023/08/25 01:25:20;;;;;;;70.82;67.53;;;21.20;99.90;;;;;;5008737;28;20213;-66
2023/08/25 01:27:48;;;;;;;72.97;69.68;;;21.10;99.90;;;;;;5012168;28;20235;-64
2023/08/25 01:30:15;;;;;;;55.38;53.40;;;21.10;99.90;;;;;;5011497;28;20201;-65
2023/08/25 01:32:42;;;;;;;72.07;68.32;;;21.10;99.90;;;;;;5012350;28;20605;-66
2023/08/25 01:35:09;;;;;;;57.65;55.60;;;21.20;99.90;;;;;;5012175;28;20292;-67
2023/08/25 01:37:41;;;;;;;52.05;50.17;;;21.20;99.90;;;;;;5011718;28;20242;-68
2023/08/25 01:40:16;;;;;;;49.33;47.53;;;21.20;99.90;;;;;;5011007;28;20190;-67
2023/08/25 01:42:46;;;;;;;43.03;41.47;;;21.30;99.90;;;;;;5011732;28;20258;-67
2023/08/25 01:45:14;;;;;;;76.55;73.20;;;21.30;99.90;;;;;;5011565;28;20186;-69
2023/08/25 01:47:43;;;;;;;61.35;58.97;;;21.30;99.90;;;;;;5010651;28;20225;-65
2023/08/25 01:50:10;;;;;;;55.60;53.60;;;21.30;99.90;;;;;;5010501;28;20209;-67
2023/08/25 01:52:37;;;;;;;62.72;60.50;;;21.30;99.90;;;;;;5016473;28;20289;-64
2023/08/25 01:55:04;;;;;;;59.55;57.35;;;21.30;99.90;;;;;;5011955;28;20209;-66
2023/08/25 01:57:33;;;;;;;69.28;66.30;;;21.20;99.90;;;;;;5015732;28;20197;-67
2023/08/25 01:59:59;;;;;;;54.53;52.47;;;21.20;99.90;;;;;;5012538;28;20216;-67
2023/08/25 02:02:26;;;;;;;59.47;57.28;;;21.10;99.90;;;;;;5012421;28;20225;-67
2023/08/25 02:04:53;;;;;;;57.95;55.85;;;21.10;99.90;;;;;;5012615;28;20206;-66
2023/08/25 02:07:20;;;;;;;66.17;63.60;;;21.10;99.90;;;;;;5012307;28;20238;-64
2023/08/25 02:09:46;;;;;;;152.30;139.82;;;21.00;99.90;;;;;;5010862;28;20579;-68
2023/08/25 02:12:13;;;;;;;52.22;50.33;;;20.90;99.90;;;;;;5011598;28;20235;-64
2023/08/25 02:14:41;;;;;;;47.50;45.78;;;20.90;99.90;;;;;;5011554;28;20209;-66
2023/08/25 02:17:08;;;;;;;65.13;62.40;;;20.90;99.90;;;;;;5011292;28;20224;-66
2023/08/25 02:19:35;;;;;;;67.53;64.68;;;20.80;99.90;;;;;;5010223;28;20201;-65
2023/08/25 02:22:03;;;;;;;51.72;49.83;;;20.80;99.90;;;;;;5011207;28;20225;-66
2023/08/25 02:24:30;;;;;;;87.85;83.45;;;20.80;99.90;;;;;;5013419;28;20214;-65
2023/08/25 02:26:57;;;;;;;64.20;61.80;;;20.80;99.90;;;;;;5012680;28;20704;-66
2023/08/25 02:29:24;;;;;;;71.80;68.75;;;20.80;99.90;;;;;;5011047;28;20228;-66
2023/08/25 02:31:52;;;;;;;47.92;46.22;;;20.80;99.90;;;;;;5011707;28;20809;-65
2023/08/25 02:34:19;;;;;;;65.13;62.50;;;20.80;99.90;;;;;;5009383;28;20215;-66
2023/08/25 02:36:46;;;;;;;124.22;116.75;;;20.80;99.90;;;;;;5012066;28;20204;-66
2023/08/25 02:39:13;;;;;;;76.13;73.10;;;20.80;99.90;;;;;;5011211;28;20235;-66
2023/08/25 02:41:39;;;;;;;91.72;87.93;;;20.80;99.90;;;;;;5012053;28;20211;-65
2023/08/25 02:44:06;;;;;;;55.35;53.33;;;20.80;99.90;;;;;;5011704;28;20209;-66
2023/08/25 02:46:33;;;;;;;129.80;121.80;;;20.80;99.90;;;;;;5011799;28;20229;-67
2023/08/25 02:49:01;;;;;;;93.43;88.72;;;20.90;99.90;;;;;;5011462;28;20205;-69
2023/08/25 02:51:28;;;;;;;47.80;45.97;;;20.90;99.90;;;;;;5011478;28;20225;-67
2023/08/25 02:53:55;;;;;;;47.00;45.23;;;20.90;99.90;;;;;;5011271;28;20256;-65
2023/08/25 02:56:21;;;;;;;77.85;73.88;;;20.90;99.90;;;;;;5011508;28;20205;-65
2023/08/25 02:58:48;;;;;;;77.07;73.60;;;21.00;99.90;;;;;;5015444;28;20604;-65
2023/08/25 03:01:15;;;;;;;38.27;36.90;;;21.00;99.90;;;;;;5019694;28;20667;-65
2023/08/25 03:03:43;;;;;;;38.77;37.37;;;21.00;99.90;;;;;;5011500;28;20235;-68
2023/08/25 03:06:11;;;;;;;50.23;48.47;;;20.90;99.90;;;;;;5013982;28;20205;-67
2023/08/25 03:08:38;;;;;;;38.90;37.50;;;20.90;99.90;;;;;;5014027;28;20627;-65
2023/08/25 03:11:05;;;;;;;42.77;41.20;;;20.90;99.90;;;;;;5011621;28;20652;-65
2023/08/25 03:13:32;;;;;;;34.13;32.90;;;20.90;99.90;;;;;;5012506;28;20236;-67
2023/08/25 03:16:01;;;;;;;39.28;37.83;;;20.90;99.90;;;;;;5011861;28;20213;-65
2023/08/25 03:18:28;;;;;;;33.37;32.17;;;20.90;99.90;;;;;;5011152;28;20209;-67
2023/08/25 03:20:55;;;;;;;21.10;20.30;;;21.00;99.90;;;;;;5010441;28;20672;-64
2023/08/25 03:23:23;;;;;;;18.42;17.75;;;21.00;99.90;;;;;;5012295;28;20225;-67
2023/08/25 03:25:50;;;;;;;16.65;16.02;;;21.00;99.90;;;;;;5011042;28;20214;-65
2023/08/25 03:28:17;;;;;;;20.80;20.03;;;21.00;99.90;;;;;;5011034;28;20221;-64
2023/08/25 03:30:44;;;;;;;19.47;18.67;;;21.10;99.90;;;;;;5010654;28;20296;-64
2023/08/25 03:33:11;;;;;;;15.82;15.27;;;21.10;99.90;;;;;;5042956;22;20642;-64
2023/08/25 03:35:43;;;;;;;17.67;17.08;;;21.10;99.90;;;;;;5030260;28;20295;-63
2023/08/25 03:38:11;;;;;;;26.23;25.17;;;21.10;99.90;;;;;;5030264;28;20212;-64
2023/08/25 03:40:39;;;;;;;17.10;16.50;;;21.10;99.90;;;;;;5029696;28;20209;-64
2023/08/25 03:43:07;;;;;;;20.17;19.40;;;21.10;99.90;;;;;;5029671;28;20231;-64
2023/08/25 03:45:36;;;;;;;33.13;31.73;;;21.10;99.90;;;;;;5029869;28;20219;-62
2023/08/25 03:48:07;;;;;;;23.10;22.20;;;21.10;99.90;;;;;;5029484;28;20220;-63
2023/08/25 03:50:35;;;;;;;16.88;16.25;;;21.10;99.90;;;;;;5029256;28;20216;-65
2023/08/25 03:53:03;;;;;;;26.53;25.37;;;21.10;99.90;;;;;;5029677;28;20319;-63
2023/08/25 03:55:30;;;;;;;19.13;18.40;;;21.00;99.90;;;;;;5029948;28;20208;-63
2023/08/25 03:57:59;;;;;;;45.77;43.63;;;21.00;99.90;;;;;;5029962;28;20208;-63
2023/08/25 04:00:27;;;;;;;34.87;32.77;;;20.90;99.90;;;;;;5028917;28;20259;-64
2023/08/25 04:02:54;;;;;;;15.37;14.87;;;20.90;99.90;;;;;;5029078;28;20259;-63
2023/08/25 04:05:23;;;;;;;15.52;14.95;;;20.90;99.90;;;;;;5029334;28;20443;-63
2023/08/25 04:07:53;;;;;;;19.52;18.80;;;20.90;99.90;;;;;;5029068;28;20224;-64
2023/08/25 04:10:21;;;;;;;63.33;58.93;;;21.00;99.90;;;;;;5029263;28;20899;-63
2023/08/25 04:12:48;;;;;;;14.67;14.17;;;21.00;99.90;;;;;;5031978;28;20228;-65
2023/08/25 04:15:19;;;;;;;15.27;14.73;;;21.00;99.90;;;;;;5033004;28;20208;-62
2023/08/25 04:17:47;;;;;;;18.60;17.92;;;21.00;99.90;;;;;;5032833;28;20296;-64
2023/08/25 04:20:15;;;;;;;17.13;16.57;;;21.00;99.90;;;;;;5033281;28;20205;-63
2023/08/25 04:22:44;;;;;;;18.00;17.37;;;20.90;99.90;;;;;;5032712;28;20232;-62
2023/08/25 04:25:11;;;;;;;22.47;21.67;;;20.90;99.90;;;;;;5033642;28;20205;-63
2023/08/25 04:27:40;;;;;;;27.10;26.00;;;21.00;99.90;;;;;;5032719;28;20222;-63
2023/08/25 04:30:09;;;;;;;33.47;32.23;;;20.90;99.90;;;;;;5032223;28;20208;-64
2023/08/25 04:32:38;;;;;;;32.90;31.67;;;20.90;99.90;;;;;;5032101;28;20263;-63
2023/08/25 04:35:07;;;;;;;21.60;20.85;;;20.90;99.90;;;;;;5033060;28;20200;-63
2023/08/25 04:37:35;;;;;;;22.27;21.48;;;21.00;99.90;;;;;;5033099;28;20204;-64
2023/08/25 04:40:04;;;;;;;17.05;16.35;;;20.80;99.90;;;;;;5032573;28;20260;-63
2023/08/25 04:42:33;;;;;;;21.10;20.37;;;20.90;99.90;;;;;;5032805;28;20213;-64
2023/08/25 04:45:03;;;;;;;16.60;16.00;;;20.90;99.90;;;;;;5033526;28;20291;-64
2023/08/25 04:47:31;;;;;;;18.65;18.00;;;21.00;99.90;;;;;;5032138;28;20691;-63
2023/08/25 04:50:03;;;;;;;14.27;13.77;;;21.00;99.90;;;;;;5034087;28;20201;-63
2023/08/25 04:52:31;;;;;;;15.23;14.65;;;21.00;99.90;;;;;;5033408;28;20204;-64
2023/08/25 04:54:59;;;;;;;20.43;19.70;;;21.10;99.90;;;;;;5034029;28;20209;-64
2023/08/25 04:57:26;;;;;;;24.97;24.07;;;21.20;99.90;;;;;;5035319;28;20597;-63
2023/08/25 04:59:53;;;;;;;16.93;16.33;;;21.20;99.90;;;;;;5032122;28;20224;-63
2023/08/25 05:02:22;;;;;;;21.93;20.97;;;21.20;99.90;;;;;;5032500;28;20266;-62
2023/08/25 05:04:50;;;;;;;20.75;20.00;;;21.30;99.90;;;;;;5034353;28;20209;-63
2023/08/25 05:07:21;;;;;;;15.87;15.27;;;21.30;99.90;;;;;;5036917;28;20224;-63
2023/08/25 05:09:49;;;;;;;15.63;15.07;;;21.40;99.90;;;;;;5033196;28;20200;-63
2023/08/25 05:12:17;;;;;;;15.52;15.02;;;21.40;99.90;;;;;;5031933;28;20212;-62
2023/08/25 05:14:45;;;;;;;16.33;15.73;;;21.40;99.90;;;;;;5032525;28;20656;-63
2023/08/25 05:17:12;;;;;;;15.63;15.02;;;21.40;99.90;;;;;;5032259;28;20204;-65
2023/08/25 05:19:41;;;;;;;16.37;15.80;;;21.40;99.90;;;;;;5032170;28;20291;-64
2023/08/25 05:22:09;;;;;;;15.60;15.00;;;21.50;99.90;;;;;;5032396;28;20215;-64
2023/08/25 05:24:39;;;;;;;15.67;14.87;;;21.50;99.90;;;;;;5032343;28;20251;-64
2023/08/25 05:27:08;;;;;;;30.80;29.60;;;21.50;99.90;;;;;;5033646;28;20350;-64
2023/08/25 05:29:36;;;;;;;112.30;104.35;;;21.60;99.90;;;;;;5032518;28;20201;-65
2023/08/25 05:32:04;;;;;;;320.77;291.08;;;21.60;99.90;;;;;;5033365;28;20254;-63
2023/08/25 05:34:33;;;;;;;70.03;67.33;;;21.60;99.90;;;;;;5033061;28;20237;-62
2023/08/25 05:37:01;;;;;;;76.20;72.87;;;21.50;99.90;;;;;;5034046;28;20209;-64
2023/08/25 05:39:31;;;;;;;52.50;50.60;;;21.40;99.90;;;;;;5033996;28;20307;-64
2023/08/25 05:42:01;;;;;;;61.10;58.93;;;21.50;99.90;;;;;;5033198;28;20303;-63
2023/08/25 05:44:28;;;;;;;44.83;43.17;;;21.50;99.90;;;;;;5032541;28;20319;-63
2023/08/25 05:46:56;;;;;;;48.47;46.67;;;21.50;99.90;;;;;;5032066;28;20296;-63
2023/08/25 05:49:24;;;;;;;49.77;48.00;;;21.50;99.90;;;;;;5031045;28;20235;-63
2023/08/25 05:51:51;;;;;;;56.38;54.33;;;21.50;99.90;;;;;;5032468;28;20208;-62
2023/08/25 05:54:19;;;;;;;63.67;61.47;;;21.40;99.90;;;;;;5031701;28;20229;-62
2023/08/25 05:56:46;;;;;;;59.20;57.10;;;21.50;99.90;;;;;;5032087;28;20259;-63
2023/08/25 05:59:17;;;;;;;53.40;51.50;;;21.50;99.90;;;;;;5031642;28;20287;-62
2023/08/25 06:01:44;;;;;;;57.10;55.07;;;21.50;99.90;;;;;;5032065;28;20212;-62
2023/08/25 06:04:12;;;;;;;59.17;57.07;;;21.60;99.90;;;;;;5031499;28;20722;-62
2023/08/25 06:06:41;;;;;;;57.57;55.50;;;21.60;99.90;;;;;;5031778;28;20205;-62
2023/08/25 06:09:10;;;;;;;53.83;51.93;;;21.60;99.90;;;;;;5030945;28;20459;-62
2023/08/25 06:11:38;;;;;;;58.70;56.60;;;21.60;99.90;;;;;;5030904;28;20295;-61
2023/08/25 06:14:05;;;;;;;47.93;46.20;;;21.50;99.90;;;;;;5032165;28;20229;-64
2023/08/25 06:16:38;;;;;;;53.13;51.23;;;21.40;99.90;;;;;;5032654;28;20295;-62
2023/08/25 06:19:05;;;;;;;55.10;53.08;;;21.40;99.90;;;;;;5031568;28;20185;-64
2023/08/25 06:21:33;;;;;;;49.80;48.00;;;21.30;99.90;;;;;;5032066;28;20243;-62
2023/08/25 06:24:02;;;;;;;48.60;46.83;;;21.30;99.90;;;;;;5032212;28;20231;-63
2023/08/25 06:26:30;;;;;;;50.30;48.53;;;21.30;99.90;;;;;;5031901;28;20563;-65
2023/08/25 06:28:58;;;;;;;52.80;50.90;;;21.20;99.90;;;;;;5031396;28;20225;-62
2023/08/25 06:31:25;;;;;;;50.27;48.47;;;21.20;99.90;;;;;;5031439;28;20645;-62
2023/08/25 06:33:54;;;;;;;59.10;56.95;;;21.20;99.90;;;;;;5030914;28;20661;-62
2023/08/25 06:36:23;;;;;;;49.65;47.88;;;21.20;99.90;;;;;;5030776;28;20204;-62
2023/08/25 06:38:50;;;;;;;49.05;47.28;;;21.10;99.90;;;;;;5031642;28;20205;-62
2023/08/25 06:41:17;;;;;;;50.10;48.23;;;21.10;99.90;;;;;;5031010;28;20215;-63
2023/08/25 06:43:46;;;;;;;44.47;42.63;;;21.10;99.90;;;;;;5031078;28;20243;-63
2023/08/25 06:46:12;;;;;;;40.03;38.63;;;21.00;99.90;;;;;;5031790;28;20263;-63
2023/08/25 06:48:39;;;;;;;97.03;92.13;;;21.00;99.90;;;;;;5031728;28;20691;-63
2023/08/25 06:51:09;;;;;;;53.37;51.43;;;21.00;99.90;;;;;;5029647;28;20212;-62
2023/08/25 06:53:36;;;;;;;42.77;41.20;;;20.90;99.90;;;;;;5030954;28;20733;-63
2023/08/25 06:56:04;;;;;;;45.97;44.00;;;20.90;99.90;;;;;;5031102;28;20291;-64
2023/08/25 06:58:33;;;;;;;43.17;41.57;;;20.90;99.90;;;;;;5031319;28;20285;-64
2023/08/25 07:01:03;;;;;;;40.23;38.80;;;20.80;99.90;;;;;;5030828;28;20201;-62
2023/08/25 07:03:31;;;;;;;41.80;40.30;;;20.90;99.90;;;;;;5031211;28;20323;-62
2023/08/25 07:05:59;;;;;;;102.57;95.17;;;20.90;99.90;;;;;;5030980;28;20215;-62
2023/08/25 07:08:28;;;;;;;73.50;69.80;;;20.90;99.90;;;;;;5031292;28;20264;-62
2023/08/25 07:10:55;;;;;;;78.60;74.60;;;20.90;99.90;;;;;;5031250;28;20219;-63
2023/08/25 07:13:23;;;;;;;110.60;104.57;;;20.90;99.90;;;;;;5031309;28;20791;-63
2023/08/25 07:15:53;;;;;;;55.03;52.80;;;20.90;99.90;;;;;;5031677;28;20215;-62
2023/08/25 07:18:20;;;;;;;44.57;42.97;;;20.90;99.90;;;;;;5031451;28;20663;-63
2023/08/25 07:20:48;;;;;;;45.85;44.20;;;20.90;99.90;;;;;;5031359;28;20259;-62
2023/08/25 07:23:17;;;;;;;44.83;43.10;;;20.90;99.90;;;;;;5032233;28;20228;-63
2023/08/25 07:35:05;;;;;;;138.07;129.67;;;20.90;99.90;;;;;;5069624;22;20258;-76
2023/08/25 07:37:32;;;;;;;45.73;44.13;;;20.90;99.90;;;;;;5052083;28;20239;-76
2023/08/25 07:39:59;;;;;;;63.50;61.07;;;20.90;99.90;;;;;;5052931;28;20223;-75
2023/08/25 07:42:26;;;;;;;47.63;45.83;;;20.80;99.90;;;;;;5052589;28;20246;-75
2023/08/25 07:44:53;;;;;;;127.20;119.27;;;20.90;99.90;;;;;;5052095;28;20207;-77
2023/08/25 07:47:20;;;;;;;142.85;135.10;;;20.90;99.90;;;;;;5053594;28;20302;-78
2023/08/25 07:49:47;;;;;;;51.58;49.67;;;20.80;99.90;;;;;;5055708;28;20235;-76
2023/08/25 07:52:15;;;;;;;180.10;169.70;;;20.90;99.90;;;;;;5055981;28;20706;-74
2023/08/25 07:54:42;;;;;;;73.97;71.23;;;20.90;99.90;;;;;;5055489;28;20299;-73
2023/08/25 07:57:09;;;;;;;70.30;67.33;;;20.90;99.90;;;;;;5055773;28;20219;-78
2023/08/25 07:59:36;;;;;;;118.97;113.57;;;20.90;99.90;;;;;;5055908;28;20670;-75
2023/08/25 08:02:03;;;;;;;71.37;68.60;;;20.90;99.90;;;;;;5057284;28;20298;-77
2023/08/25 08:04:31;;;;;;;55.03;53.10;;;20.70;99.90;;;;;;5056578;28;20203;-76
2023/08/25 08:07:00;;;;;;;54.87;52.90;;;21.00;99.90;;;;;;5055458;28;20212;-74
2023/08/25 08:09:28;;;;;;;54.57;52.63;;;21.00;99.90;;;;;;5054835;28;20284;-76
2023/08/25 08:11:56;;;;;;;66.40;63.77;;;21.00;99.90;;;;;;5056014;28;20212;-75
2023/08/25 08:14:22;;;;;;;54.63;52.73;;;20.90;99.90;;;;;;5055354;28;20218;-77
2023/08/25 08:16:49;;;;;;;67.07;64.67;;;20.90;99.90;;;;;;5055449;28;20298;-75
2023/08/25 08:19:16;;;;;;;68.27;65.53;;;20.90;99.90;;;;;;5054824;28;20223;-75
2023/08/25 08:21:43;;;;;;;54.10;52.17;;;20.80;99.90;;;;;;5055977;28;20207;-77
2023/08/25 08:24:10;;;;;;;113.53;107.57;;;20.90;99.90;;;;;;5055208;28;20243;-75
2023/08/25 08:26:40;;;;;;;81.93;78.63;;;20.90;99.90;;;;;;5054464;28;20215;-78
2023/08/25 08:29:07;;;;;;;183.17;171.23;;;20.90;99.90;;;;;;5054119;28;20587;-76
2023/08/25 08:31:34;;;;;;;56.93;54.83;;;20.90;99.90;;;;;;5055056;28;20788;-75
2023/08/25 08:34:00;;;;;;;54.73;52.83;;;20.90;99.90;;;;;;5054785;28;20212;-74
2023/08/25 08:36:27;;;;;;;53.40;51.47;;;21.00;99.90;;;;;;5054867;28;20295;-74
2023/08/25 08:38:54;;;;;;;108.67;102.83;;;21.00;99.90;;;;;;5054467;28;20227;-75
2023/08/25 08:41:21;;;;;;;132.43;123.80;;;21.00;99.90;;;;;;5053758;28;20211;-75
2023/08/25 08:43:53;;;;;;;123.37;116.23;;;21.00;99.90;;;;;;5053124;28;20356;-75
2023/08/25 08:46:20;;;;;;;45.57;43.90;;;21.10;99.90;;;;;;5053701;28;20203;-75
2023/08/25 08:48:49;;;;;;;68.40;66.00;;;21.20;99.90;;;;;;5053707;28;20315;-73
2023/08/25 08:51:17;;;;;;;50.63;48.83;;;21.30;99.90;;;;;;5053500;28;20204;-75
2023/08/25 08:53:47;;;;;;;56.57;54.57;;;21.30;99.90;;;;;;5054960;28;20208;-75
2023/08/25 08:56:15;;;;;;;31.48;30.35;;;21.30;99.90;;;;;;5054116;28;20200;-73
2023/08/25 08:58:43;;;;;;;43.30;41.77;;;21.30;99.90;;;;;;5051958;28;20231;-76
2023/08/25 09:01:11;;;;;;;40.63;39.07;;;21.40;99.90;;;;;;5053134;28;20207;-74
2023/08/25 09:03:39;;;;;;;54.37;52.17;;;21.50;99.90;;;;;;5053649;28;20204;-74
2023/08/25 09:06:06;;;;;;;51.40;49.60;;;21.60;99.90;;;;;;5053405;28;20691;-74
2023/08/25 09:08:35;;;;;;;169.57;153.80;;;21.70;99.90;;;;;;5053546;28;21160;-75
2023/08/25 09:11:04;;;;;;;79.07;75.87;;;21.70;99.90;;;;;;5055226;28;20211;-75
2023/08/25 09:13:33;;;;;;;48.23;46.53;;;21.80;99.90;;;;;;5055045;28;20258;-76
2023/08/25 09:16:01;;;;;;;59.37;57.27;;;21.90;99.90;;;;;;5054437;28;20254;-77
2023/08/25 09:18:35;;;;;;;75.60;72.60;;;21.90;99.90;;;;;;5054509;28;20946;-76
2023/08/25 09:21:04;;;;;;;30.97;29.83;;;22.00;99.90;;;;;;5054852;28;20425;-74
2023/08/25 09:23:31;;;;;;;198.02;154.63;;;22.10;99.90;;;;;;5055228;28;20698;-74
2023/08/25 09:26:05;;;;;;;35.57;34.23;;;22.20;99.90;;;;;;5055034;28;20311;-74
2023/08/25 09:28:36;;;;;;;65.87;62.93;;;22.40;99.90;;;;;;5054303;28;20226;-74
2023/08/25 09:31:03;;;;;;;45.67;43.97;;;22.50;99.90;;;;;;5054280;28;20647;-75
2023/08/25 09:33:30;;;;;;;52.73;50.37;;;22.60;99.90;;;;;;5068306;22;20307;-64
2023/08/25 09:36:05;;;;;;;58.30;55.27;;;22.60;99.90;;;;;;5052755;28;20206;-67
2023/08/25 09:38:34;;;;;;;29.47;28.43;;;22.60;99.90;;;;;;5053935;28;20211;-68
2023/08/25 09:41:01;;;;;;;29.07;28.03;;;22.70;99.90;;;;;;5052593;28;20212;-66
2023/08/25 09:43:30;;;;;;;43.77;41.93;;;22.70;99.90;;;;;;5052856;28;20234;-65
2023/08/25 09:45:57;;;;;;;24.53;23.67;;;22.80;99.90;;;;;;5052861;28;20208;-66
2023/08/25 09:48:26;;;;;;;38.40;36.90;;;22.80;99.90;;;;;;5053078;28;20211;-67
2023/08/25 09:50:53;;;;;;;26.77;25.87;;;22.90;99.90;;;;;;5052888;28;20208;-67
2023/08/25 09:53:24;;;;;;;23.23;22.43;;;23.00;99.90;;;;;;5054450;28;20310;-67
2023/08/25 09:56:00;;;;;;;18.53;17.90;;;23.20;99.90;;;;;;5052141;28;20236;-65
2023/08/25 09:58:27;;;;;;;22.10;21.30;;;23.30;99.90;;;;;;5051760;28;20207;-66
2023/08/25 10:00:55;;;;;;;20.90;20.17;;;23.40;99.90;;;;;;5050894;28;20214;-66
2023/08/25 10:03:22;;;;;;;27.93;26.93;;;23.50;99.90;;;;;;5052399;28;20224;-65
2023/08/25 10:05:49;;;;;;;25.57;24.67;;;23.60;99.90;;;;;;5055002;28;20210;-65
2023/08/25 10:08:18;;;;;;;25.38;24.20;;;23.60;99.90;;;;;;5052805;28;20652;-65
2023/08/25 10:10:46;;;;;;;15.57;15.07;;;23.70;99.90;;;;;;5050355;28;20230;-65
2023/08/25 10:13:14;;;;;;;15.13;14.63;;;23.70;99.90;;;;;;5051841;28;20220;-65
2023/08/25 10:15:43;;;;;;;18.20;17.60;;;23.90;99.90;;;;;;5052618;28;20212;-69
2023/08/25 10:18:11;;;;;;;15.60;15.00;;;23.90;99.90;;;;;;5055270;28;20216;-67
2023/08/25 10:20:39;;;;;;;14.67;14.17;;;23.90;99.90;;;;;;5054154;28;20228;-66
2023/08/25 10:23:08;;;;;;;18.23;17.63;;;23.90;99.90;;;;;;5053031;28;20232;-66
2023/08/25 10:25:38;;;;;;;16.83;16.23;;;24.00;99.90;;;;;;5053215;28;20211;-65
2023/08/25 10:28:09;;;;;;;16.97;16.37;;;24.00;99.90;;;;;;5055239;28;20211;-67
2023/08/25 10:30:36;;;;;;;17.60;17.00;;;24.10;99.90;;;;;;5054562;28;20678;-66
2023/08/25 10:33:05;;;;;;;20.13;19.30;;;24.10;99.90;;;;;;5053057;28;20511;-66
2023/08/25 10:35:43;;;;;;;15.67;15.07;;;24.00;99.90;;;;;;5051054;28;20211;-64
2023/08/25 10:38:35;;;;;;;16.70;16.10;;;24.00;99.90;;;;;;5052148;28;20212;-65
2023/08/25 10:41:13;;;;;;;17.30;16.70;;;24.00;99.90;;;;;;5054939;28;20215;-67
2023/08/25 10:43:45;;;;;;;17.17;16.57;;;23.90;99.90;;;;;;5060312;28;20235;-67
2023/08/25 10:46:12;;;;;;;18.17;17.57;;;23.90;99.90;;;;;;5065126;28;20192;-66
2023/08/25 10:48:40;;;;;;;17.37;16.77;;;23.90;99.90;;;;;;5065771;28;20228;-65
2023/08/25 10:51:08;;;;;;;17.27;16.67;;;23.90;99.90;;;;;;5062558;28;20206;-65
2023/08/25 10:53:36;;;;;;;15.90;15.30;;;23.90;99.90;;;;;;5061872;28;20227;-66
2023/08/25 10:56:22;;;;;;;15.73;15.13;;;23.90;99.90;;;;;;5059008;28;20208;-64
2023/08/25 10:59:00;;;;;;;17.30;16.60;;;23.90;99.90;;;;;;5054495;28;20231;-64
2023/08/25 11:01:53;;;;;;;19.08;18.38;;;23.90;99.90;;;;;;5052176;28;20214;-67
2023/08/25 11:04:22;;;;;;;19.20;18.50;;;23.70;99.90;;;;;;5052190;28;20223;-64
2023/08/25 11:06:50;;;;;;;16.13;15.53;;;23.70;99.90;;;;;;5051344;28;20208;-64
2023/08/25 11:09:31;;;;;;;16.80;16.20;;;23.60;99.90;;;;;;5050970;28;20226;-64
2023/08/25 11:12:00;;;;;;;18.47;17.80;;;23.60;99.90;;;;;;5051873;28;20485;-66
2023/08/25 11:14:32;;;;;;;17.95;17.35;;;23.60;99.90;;;;;;5052950;28;20701;-66
2023/08/25 11:17:01;;;;;;;19.13;18.40;;;23.60;99.90;;;;;;5055135;28;20229;-65
2023/08/25 11:19:31;;;;;;;20.33;19.60;;;23.60;99.90;;;;;;5054488;28;20294;-67
2023/08/25 11:22:00;;;;;;;17.85;17.25;;;23.70;99.90;;;;;;5053826;28;20192;-66
2023/08/25 11:24:29;;;;;;;16.63;16.02;;;23.70;99.90;;;;;;5052163;28;20632;-66
2023/08/25 11:26:55;;;;;;;19.33;18.67;;;23.70;99.90;;;;;;5051306;28;20204;-66
2023/08/25 11:29:23;;;;;;;18.00;17.38;;;23.90;99.90;;;;;;5049759;28;20224;-66
2023/08/25 11:31:51;;;;;;;21.80;21.07;;;23.90;99.90;;;;;;5050228;28;20212;-66
2023/08/25 11:34:18;;;;;;;15.45;14.88;;;24.00;99.90;;;;;;5051918;28;20235;-65
2023/08/25 11:36:45;;;;;;;21.40;20.67;;;24.20;99.90;;;;;;5052120;28;20216;-66
2023/08/25 11:39:19;;;;;;;53.20;48.63;;;24.40;99.90;;;;;;5050571;28;20508;-65
2023/08/25 11:41:46;;;;;;;14.80;14.30;;;24.50;99.90;;;;;;5050357;28;20208;-67
2023/08/25 11:44:14;;;;;;;15.43;14.83;;;24.70;99.90;;;;;;5049351;28;20227;-66
2023/08/25 11:46:42;;;;;;;16.80;16.20;;;24.80;99.90;;;;;;5049711;28;20254;-65
2023/08/25 11:49:10;;;;;;;17.07;16.47;;;24.80;99.90;;;;;;5048585;28;20215;-66
2023/08/25 11:51:37;;;;;;;16.30;15.70;;;25.00;99.90;;;;;;5050938;28;20299;-67
2023/08/25 11:54:05;;;;;;;19.70;18.95;;;25.00;99.90;;;;;;5051503;28;20628;-65
2023/08/25 11:56:31;;;;;;;16.63;16.03;;;25.10;99.90;;;;;;5049822;28;20200;-66
2023/08/25 11:58:59;;;;;;;22.23;21.40;;;25.20;99.90;;;;;;5048490;28;20253;-68
2023/08/25 12:01:31;;;;;;;17.77;17.08;;;25.20;99.90;;;;;;5050203;28;20678;-67
2023/08/25 12:03:59;;;;;;;15.13;14.60;;;25.50;99.90;;;;;;5050408;28;20227;-67
2023/08/25 12:06:27;;;;;;;16.83;16.23;;;25.70;99.90;;;;;;5052188;28;20298;-68
2023/08/25 12:08:54;;;;;;;18.33;17.63;;;25.70;99.90;;;;;;5052972;28;20207;-66
2023/08/25 12:11:21;;;;;;;15.73;15.23;;;25.80;99.90;;;;;;5051716;28;20242;-69
2023/08/25 12:13:48;;;;;;;15.35;14.75;;;25.90;99.90;;;;;;5051621;28;20238;-68
2023/08/25 12:16:19;;;;;;;18.43;17.80;;;26.00;99.90;;;;;;5050413;28;20214;-68
2023/08/25 12:18:51;;;;;;;17.63;17.02;;;26.10;99.90;;;;;;5050895;28;20220;-67
2023/08/25 12:21:18;;;;;;;17.77;17.17;;;26.20;99.90;;;;;;5050588;28;20714;-68
2023/08/25 12:23:47;;;;;;;19.47;18.77;;;26.40;99.90;;;;;;5050953;28;20223;-68
2023/08/25 12:26:14;;;;;;;19.98;19.27;;;26.40;99.90;;;;;;5051097;28;20210;-67
2023/08/25 12:28:42;;;;;;;15.23;14.63;;;26.60;99.90;;;;;;5050224;28;20211;-66
2023/08/25 12:31:09;;;;;;;19.83;19.02;;;26.60;99.90;;;;;;5049590;28;20277;-65
2023/08/25 12:33:36;;;;;;;18.08;17.30;;;26.70;99.90;;;;;;5052988;28;20228;-66
2023/08/25 12:36:03;;;;;;;12.88;12.48;;;26.80;99.90;;;;;;5053344;28;20199;-68
2023/08/25 12:38:32;;;;;;;18.13;17.52;;;26.80;99.90;;;;;;5053102;28;20204;-65
2023/08/25 12:41:00;;;;;;;17.17;16.57;;;27.00;99.90;;;;;;5055130;28;20249;-67